Wantagh, New York
Current Conditions -  °F | °C
As of 4:53 AM on Saturday 25 Oct 2014 (Local Time) from KFRG Reporting Station
Clear Clear  
Wind Chill: 48°   Ceiling: Unl
Heat Index: 48°   Visibility: 10mi
Dew Point: 42°   Wind: 3mph
Humidity: 80%   Direction: 310°NW
Pressure: 29.84"   Gusts: NA
Location:  40.68°N, 73.51°W
Report Text: KFRG 250853Z AUTO 31003KT 10SM CLR 09/06 A2984 RMK AO2 SLP106 T00890056 57001
Loading
Personal Weather Stations






























Interactive Weather Map
Tropical Storm Tracking
New forecast layout! Learn more

10-Day Weather Forecast

Advertisements
Track Severe Weather on mobile